sensor_id;sensor_type;location;lat;lon;timestamp;P1;durP1;ratioP1;P2;durP2;ratioP2
30287;SDS011;17103;48.316;11.558;2023-08-12T00:01:09;2.67;;;2.05;;
30287;SDS011;17103;48.316;11.558;2023-08-12T00:03:35;3.17;;;1.88;;
30287;SDS011;17103;48.316;11.558;2023-08-12T00:06:00;9.60;;;2.00;;
30287;SDS011;17103;48.316;11.558;2023-08-12T00:08:27;4.78;;;1.92;;
30287;SDS011;17103;48.316;11.558;2023-08-12T00:10:54;2.42;;;1.90;;
30287;SDS011;17103;48.316;11.558;2023-08-12T00:13:19;3.78;;;2.00;;
30287;SDS011;17103;48.316;11.558;2023-08-12T00:15:45;2.60;;;1.90;;
30287;SDS011;17103;48.316;11.558;2023-08-12T00:18:11;3.60;;;2.05;;
30287;SDS011;17103;48.316;11.558;2023-08-12T00:20:37;3.45;;;2.40;;
30287;SDS011;17103;48.316;11.558;2023-08-12T00:23:03;3.03;;;1.88;;
30287;SDS011;17103;48.316;11.558;2023-08-12T00:25:29;2.80;;;1.90;;
30287;SDS011;17103;48.316;11.558;2023-08-12T00:27:55;2.00;;;1.83;;
30287;SDS011;17103;48.316;11.558;2023-08-12T00:30:22;2.33;;;1.77;;
30287;SDS011;17103;48.316;11.558;2023-08-12T00:32:48;2.70;;;1.90;;
30287;SDS011;17103;48.316;11.558;2023-08-12T00:35:19;2.83;;;1.92;;
30287;SDS011;17103;48.316;11.558;2023-08-12T00:37:45;4.43;;;2.03;;
30287;SDS011;17103;48.316;11.558;2023-08-12T00:40:10;2.38;;;1.92;;
30287;SDS011;17103;48.316;11.558;2023-08-12T00:42:39;2.47;;;1.92;;
30287;SDS011;17103;48.316;11.558;2023-08-12T00:45:10;3.30;;;2.00;;
30287;SDS011;17103;48.316;11.558;2023-08-12T00:47:39;3.10;;;1.70;;
30287;SDS011;17103;48.316;11.558;2023-08-12T00:50:07;2.20;;;2.00;;
30287;SDS011;17103;48.316;11.558;2023-08-12T00:52:36;3.00;;;1.42;;
30287;SDS011;17103;48.316;11.558;2023-08-12T00:55:02;2.05;;;1.70;;
30287;SDS011;17103;48.316;11.558;2023-08-12T00:57:28;3.60;;;1.60;;
30287;SDS011;17103;48.316;11.558;2023-08-12T00:59:54;3.28;;;1.90;;
30287;SDS011;17103;48.316;11.558;2023-08-12T01:02:21;2.33;;;2.03;;
30287;SDS011;17103;48.316;11.558;2023-08-12T01:04:46;2.42;;;1.80;;
30287;SDS011;17103;48.316;11.558;2023-08-12T01:07:12;2.25;;;1.60;;
30287;SDS011;17103;48.316;11.558;2023-08-12T01:09:38;2.38;;;1.92;;
30287;SDS011;17103;48.316;11.558;2023-08-12T01:12:09;2.40;;;1.58;;
30287;SDS011;17103;48.316;11.558;2023-08-12T01:14:51;3.00;;;1.80;;
30287;SDS011;17103;48.316;11.558;2023-08-12T01:17:24;6.53;;;2.00;;
30287;SDS011;17103;48.316;11.558;2023-08-12T01:19:53;1.67;;;1.52;;
30287;SDS011;17103;48.316;11.558;2023-08-12T01:22:21;2.15;;;1.90;;
30287;SDS011;17103;48.316;11.558;2023-08-12T01:24:51;2.60;;;1.63;;
30287;SDS011;17103;48.316;11.558;2023-08-12T01:27:16;2.75;;;1.67;;
30287;SDS011;17103;48.316;11.558;2023-08-12T01:29:44;2.78;;;1.70;;
30287;SDS011;17103;48.316;11.558;2023-08-12T01:35:19;3.45;;;1.83;;
30287;SDS011;17103;48.316;11.558;2023-08-12T01:37:49;3.63;;;2.38;;
30287;SDS011;17103;48.316;11.558;2023-08-12T01:40:17;3.15;;;2.15;;
30287;SDS011;17103;48.316;11.558;2023-08-12T01:42:45;3.17;;;2.47;;
30287;SDS011;17103;48.316;11.558;2023-08-12T01:45:11;2.45;;;2.10;;
30287;SDS011;17103;48.316;11.558;2023-08-12T01:47:37;2.83;;;2.40;;
30287;SDS011;17103;48.316;11.558;2023-08-12T01:50:02;5.78;;;2.50;;
30287;SDS011;17103;48.316;11.558;2023-08-12T01:52:28;3.30;;;2.35;;
30287;SDS011;17103;48.316;11.558;2023-08-12T01:54:55;2.63;;;2.33;;
30287;SDS011;17103;48.316;11.558;2023-08-12T01:57:21;4.82;;;2.20;;
30287;SDS011;17103;48.316;11.558;2023-08-12T01:59:47;2.40;;;2.00;;
30287;SDS011;17103;48.316;11.558;2023-08-12T02:02:12;2.10;;;1.80;;
30287;SDS011;17103;48.316;11.558;2023-08-12T02:04:39;4.55;;;1.80;;
30287;SDS011;17103;48.316;11.558;2023-08-12T02:07:05;6.50;;;2.80;;
30287;SDS011;17103;48.316;11.558;2023-08-12T02:09:31;3.80;;;2.08;;
30287;SDS011;17103;48.316;11.558;2023-08-12T02:11:56;3.08;;;2.20;;
30287;SDS011;17103;48.316;11.558;2023-08-12T02:14:22;4.93;;;2.35;;
30287;SDS011;17103;48.316;11.558;2023-08-12T02:16:48;2.83;;;2.50;;
30287;SDS011;17103;48.316;11.558;2023-08-12T02:19:14;2.40;;;2.20;;
30287;SDS011;17103;48.316;11.558;2023-08-12T02:21:40;3.17;;;2.10;;
30287;SDS011;17103;48.316;11.558;2023-08-12T02:24:06;4.63;;;2.13;;
30287;SDS011;17103;48.316;11.558;2023-08-12T02:26:33;3.88;;;2.33;;
30287;SDS011;17103;48.316;11.558;2023-08-12T02:28:58;3.13;;;2.08;;
30287;SDS011;17103;48.316;11.558;2023-08-12T02:31:24;3.60;;;2.25;;
30287;SDS011;17103;48.316;11.558;2023-08-12T02:33:50;3.15;;;2.60;;
30287;SDS011;17103;48.316;11.558;2023-08-12T02:36:16;4.28;;;2.70;;
30287;SDS011;17103;48.316;11.558;2023-08-12T02:38:41;3.35;;;2.70;;
30287;SDS011;17103;48.316;11.558;2023-08-12T02:41:07;3.60;;;2.75;;
30287;SDS011;17103;48.316;11.558;2023-08-12T02:43:32;2.90;;;2.13;;
30287;SDS011;17103;48.316;11.558;2023-08-12T02:45:58;8.70;;;2.30;;
30287;SDS011;17103;48.316;11.558;2023-08-12T02:48:24;3.58;;;2.38;;
30287;SDS011;17103;48.316;11.558;2023-08-12T02:50:49;2.85;;;2.28;;
30287;SDS011;17103;48.316;11.558;2023-08-12T02:53:15;2.22;;;2.03;;
30287;SDS011;17103;48.316;11.558;2023-08-12T02:55:41;3.47;;;2.30;;
30287;SDS011;17103;48.316;11.558;2023-08-12T02:58:06;3.13;;;2.63;;
30287;SDS011;17103;48.316;11.558;2023-08-12T03:00:32;3.03;;;2.50;;
30287;SDS011;17103;48.316;11.558;2023-08-12T03:02:58;2.72;;;2.47;;
30287;SDS011;17103;48.316;11.558;2023-08-12T03:05:23;3.67;;;2.67;;
30287;SDS011;17103;48.316;11.558;2023-08-12T03:07:49;2.90;;;2.50;;
30287;SDS011;17103;48.316;11.558;2023-08-12T03:10:16;3.78;;;2.22;;
30287;SDS011;17103;48.316;11.558;2023-08-12T03:12:42;7.88;;;2.38;;
30287;SDS011;17103;48.316;11.558;2023-08-12T03:15:09;4.95;;;3.00;;
30287;SDS011;17103;48.316;11.558;2023-08-12T03:17:35;4.20;;;2.70;;
30287;SDS011;17103;48.316;11.558;2023-08-12T03:20:04;4.25;;;2.47;;
30287;SDS011;17103;48.316;11.558;2023-08-12T03:22:31;3.00;;;2.70;;
30287;SDS011;17103;48.316;11.558;2023-08-12T03:24:56;3.42;;;2.53;;
30287;SDS011;17103;48.316;11.558;2023-08-12T03:27:23;2.85;;;2.50;;
30287;SDS011;17103;48.316;11.558;2023-08-12T03:29:49;3.10;;;2.80;;
30287;SDS011;17103;48.316;11.558;2023-08-12T03:32:15;2.55;;;2.20;;
30287;SDS011;17103;48.316;11.558;2023-08-12T03:34:41;4.47;;;2.70;;
30287;SDS011;17103;48.316;11.558;2023-08-12T03:37:07;2.97;;;2.60;;
30287;SDS011;17103;48.316;11.558;2023-08-12T03:39:32;4.22;;;2.70;;
30287;SDS011;17103;48.316;11.558;2023-08-12T03:41:58;2.80;;;2.60;;
30287;SDS011;17103;48.316;11.558;2023-08-12T03:44:24;3.88;;;2.38;;
30287;SDS011;17103;48.316;11.558;2023-08-12T03:46:51;3.83;;;2.88;;
30287;SDS011;17103;48.316;11.558;2023-08-12T03:49:17;4.72;;;3.00;;
30287;SDS011;17103;48.316;11.558;2023-08-12T03:51:43;6.25;;;2.60;;
30287;SDS011;17103;48.316;11.558;2023-08-12T03:54:09;3.13;;;2.47;;
30287;SDS011;17103;48.316;11.558;2023-08-12T03:56:35;3.35;;;2.80;;
30287;SDS011;17103;48.316;11.558;2023-08-12T03:59:00;3.15;;;2.72;;
30287;SDS011;17103;48.316;11.558;2023-08-12T04:01:26;3.30;;;2.42;;
30287;SDS011;17103;48.316;11.558;2023-08-12T04:03:52;3.63;;;2.85;;
30287;SDS011;17103;48.316;11.558;2023-08-12T04:06:18;3.70;;;2.70;;
30287;SDS011;17103;48.316;11.558;2023-08-12T04:08:44;3.83;;;3.00;;
30287;SDS011;17103;48.316;11.558;2023-08-12T04:11:09;4.72;;;3.28;;
30287;SDS011;17103;48.316;11.558;2023-08-12T04:13:35;3.67;;;2.80;;
30287;SDS011;17103;48.316;11.558;2023-08-12T04:16:00;4.70;;;3.03;;
30287;SDS011;17103;48.316;11.558;2023-08-12T04:18:26;3.70;;;3.08;;
30287;SDS011;17103;48.316;11.558;2023-08-12T04:20:52;3.58;;;2.90;;
30287;SDS011;17103;48.316;11.558;2023-08-12T04:23:18;4.30;;;2.88;;
30287;SDS011;17103;48.316;11.558;2023-08-12T04:25:48;2.83;;;2.50;;
30287;SDS011;17103;48.316;11.558;2023-08-12T04:28:14;3.22;;;2.75;;
30287;SDS011;17103;48.316;11.558;2023-08-12T04:30:49;2.83;;;2.30;;
30287;SDS011;17103;48.316;11.558;2023-08-12T04:33:17;3.97;;;2.83;;
30287;SDS011;17103;48.316;11.558;2023-08-12T04:35:45;3.53;;;2.60;;
30287;SDS011;17103;48.316;11.558;2023-08-12T04:38:10;3.20;;;2.80;;
30287;SDS011;17103;48.316;11.558;2023-08-12T04:40:39;3.30;;;3.00;;
30287;SDS011;17103;48.316;11.558;2023-08-12T04:43:05;3.97;;;3.13;;
30287;SDS011;17103;48.316;11.558;2023-08-12T04:45:32;4.38;;;3.03;;
30287;SDS011;17103;48.316;11.558;2023-08-12T04:47:57;5.07;;;3.25;;
30287;SDS011;17103;48.316;11.558;2023-08-12T04:50:24;3.97;;;2.63;;
30287;SDS011;17103;48.316;11.558;2023-08-12T04:52:50;3.10;;;2.60;;
30287;SDS011;17103;48.316;11.558;2023-08-12T04:55:16;4.22;;;2.78;;
30287;SDS011;17103;48.316;11.558;2023-08-12T04:57:42;3.78;;;2.85;;
30287;SDS011;17103;48.316;11.558;2023-08-12T05:00:08;3.53;;;3.13;;
30287;SDS011;17103;48.316;11.558;2023-08-12T05:02:34;3.97;;;2.90;;
30287;SDS011;17103;48.316;11.558;2023-08-12T05:05:00;3.65;;;2.72;;
30287;SDS011;17103;48.316;11.558;2023-08-12T05:07:26;4.20;;;3.10;;
30287;SDS011;17103;48.316;11.558;2023-08-12T05:09:51;2.95;;;2.55;;
30287;SDS011;17103;48.316;11.558;2023-08-12T05:12:17;4.72;;;2.75;;
30287;SDS011;17103;48.316;11.558;2023-08-12T05:14:43;4.63;;;3.03;;
30287;SDS011;17103;48.316;11.558;2023-08-12T05:17:09;3.88;;;2.85;;
30287;SDS011;17103;48.316;11.558;2023-08-12T05:19:35;3.30;;;2.83;;
30287;SDS011;17103;48.316;11.558;2023-08-12T05:22:00;3.95;;;2.70;;
30287;SDS011;17103;48.316;11.558;2023-08-12T05:24:26;3.08;;;2.45;;
30287;SDS011;17103;48.316;11.558;2023-08-12T05:26:52;3.35;;;3.05;;
30287;SDS011;17103;48.316;11.558;2023-08-12T05:29:17;3.97;;;3.03;;
30287;SDS011;17103;48.316;11.558;2023-08-12T05:31:43;3.80;;;2.80;;
30287;SDS011;17103;48.316;11.558;2023-08-12T05:34:09;3.67;;;2.78;;
30287;SDS011;17103;48.316;11.558;2023-08-12T05:36:35;7.53;;;3.80;;
30287;SDS011;17103;48.316;11.558;2023-08-12T05:39:01;3.78;;;3.40;;
30287;SDS011;17103;48.316;11.558;2023-08-12T05:41:28;4.72;;;3.70;;
30287;SDS011;17103;48.316;11.558;2023-08-12T05:43:53;3.67;;;2.88;;
30287;SDS011;17103;48.316;11.558;2023-08-12T05:46:19;4.30;;;3.05;;
30287;SDS011;17103;48.316;11.558;2023-08-12T05:48:49;5.85;;;3.88;;
30287;SDS011;17103;48.316;11.558;2023-08-12T05:51:14;4.53;;;3.03;;
30287;SDS011;17103;48.316;11.558;2023-08-12T05:53:40;4.05;;;3.05;;
30287;SDS011;17103;48.316;11.558;2023-08-12T05:56:05;3.80;;;3.40;;
30287;SDS011;17103;48.316;11.558;2023-08-12T05:58:31;5.80;;;3.22;;
30287;SDS011;17103;48.316;11.558;2023-08-12T06:00:56;3.47;;;3.17;;
30287;SDS011;17103;48.316;11.558;2023-08-12T06:03:22;5.13;;;3.00;;
30287;SDS011;17103;48.316;11.558;2023-08-12T06:05:48;3.47;;;3.08;;
30287;SDS011;17103;48.316;11.558;2023-08-12T06:08:14;5.78;;;3.83;;
30287;SDS011;17103;48.316;11.558;2023-08-12T06:10:39;3.45;;;2.60;;
30287;SDS011;17103;48.316;11.558;2023-08-12T06:13:06;4.88;;;3.70;;
30287;SDS011;17103;48.316;11.558;2023-08-12T06:15:32;4.97;;;3.97;;
30287;SDS011;17103;48.316;11.558;2023-08-12T06:18:01;3.50;;;3.03;;
30287;SDS011;17103;48.316;11.558;2023-08-12T06:20:27;4.68;;;3.78;;
30287;SDS011;17103;48.316;11.558;2023-08-12T06:22:53;7.25;;;4.03;;
30287;SDS011;17103;48.316;11.558;2023-08-12T06:25:19;5.97;;;2.97;;
30287;SDS011;17103;48.316;11.558;2023-08-12T06:27:45;6.13;;;2.55;;
30287;SDS011;17103;48.316;11.558;2023-08-12T06:30:11;6.60;;;4.20;;
30287;SDS011;17103;48.316;11.558;2023-08-12T06:32:37;5.53;;;3.38;;
30287;SDS011;17103;48.316;11.558;2023-08-12T06:35:03;4.25;;;3.25;;
30287;SDS011;17103;48.316;11.558;2023-08-12T06:37:29;4.50;;;3.53;;
30287;SDS011;17103;48.316;11.558;2023-08-12T06:39:55;5.35;;;4.25;;
30287;SDS011;17103;48.316;11.558;2023-08-12T06:42:21;4.88;;;3.25;;
30287;SDS011;17103;48.316;11.558;2023-08-12T06:44:53;3.90;;;2.88;;
30287;SDS011;17103;48.316;11.558;2023-08-12T06:47:20;4.07;;;3.30;;
30287;SDS011;17103;48.316;11.558;2023-08-12T06:49:45;3.60;;;3.00;;
30287;SDS011;17103;48.316;11.558;2023-08-12T06:52:11;4.00;;;3.25;;
30287;SDS011;17103;48.316;11.558;2023-08-12T06:54:37;3.83;;;2.80;;
30287;SDS011;17103;48.316;11.558;2023-08-12T06:57:03;4.40;;;2.70;;
30287;SDS011;17103;48.316;11.558;2023-08-12T06:59:28;3.30;;;3.00;;
30287;SDS011;17103;48.316;11.558;2023-08-12T07:01:54;3.03;;;2.72;;
30287;SDS011;17103;48.316;11.558;2023-08-12T07:04:20;4.25;;;2.92;;
30287;SDS011;17103;48.316;11.558;2023-08-12T07:06:46;7.35;;;4.00;;
30287;SDS011;17103;48.316;11.558;2023-08-12T07:09:11;4.18;;;3.17;;
30287;SDS011;17103;48.316;11.558;2023-08-12T07:11:37;6.57;;;3.00;;
30287;SDS011;17103;48.316;11.558;2023-08-12T07:14:03;2.95;;;2.63;;
30287;SDS011;17103;48.316;11.558;2023-08-12T07:16:29;3.63;;;2.72;;
30287;SDS011;17103;48.316;11.558;2023-08-12T07:18:55;2.80;;;2.50;;
30287;SDS011;17103;48.316;11.558;2023-08-12T07:21:21;4.57;;;3.25;;
30287;SDS011;17103;48.316;11.558;2023-08-12T07:23:46;3.40;;;2.90;;
30287;SDS011;17103;48.316;11.558;2023-08-12T07:26:12;2.72;;;2.33;;
30287;SDS011;17103;48.316;11.558;2023-08-12T07:28:37;3.55;;;2.50;;
30287;SDS011;17103;48.316;11.558;2023-08-12T07:31:03;2.55;;;2.30;;
30287;SDS011;17103;48.316;11.558;2023-08-12T07:33:29;3.80;;;2.30;;
30287;SDS011;17103;48.316;11.558;2023-08-12T07:35:55;2.22;;;2.03;;
30287;SDS011;17103;48.316;11.558;2023-08-12T07:38:20;3.97;;;2.90;;
30287;SDS011;17103;48.316;11.558;2023-08-12T07:40:46;3.05;;;2.75;;
30287;SDS011;17103;48.316;11.558;2023-08-12T07:43:13;3.33;;;2.67;;
30287;SDS011;17103;48.316;11.558;2023-08-12T07:45:38;2.40;;;2.20;;
30287;SDS011;17103;48.316;11.558;2023-08-12T07:48:04;4.47;;;2.63;;
30287;SDS011;17103;48.316;11.558;2023-08-12T07:50:30;3.67;;;2.28;;
30287;SDS011;17103;48.316;11.558;2023-08-12T07:52:55;3.22;;;2.38;;
30287;SDS011;17103;48.316;11.558;2023-08-12T07:55:21;1.98;;;1.73;;
30287;SDS011;17103;48.316;11.558;2023-08-12T07:57:47;2.55;;;2.20;;
30287;SDS011;17103;48.316;11.558;2023-08-12T08:00:12;2.65;;;2.15;;
30287;SDS011;17103;48.316;11.558;2023-08-12T08:02:38;2.22;;;1.95;;
30287;SDS011;17103;48.316;11.558;2023-08-12T08:05:04;2.70;;;2.50;;
30287;SDS011;17103;48.316;11.558;2023-08-12T08:07:30;2.83;;;2.45;;
30287;SDS011;17103;48.316;11.558;2023-08-12T08:09:57;2.67;;;2.33;;
30287;SDS011;17103;48.316;11.558;2023-08-12T08:12:22;3.20;;;2.08;;
30287;SDS011;17103;48.316;11.558;2023-08-12T08:14:48;2.88;;;2.40;;
30287;SDS011;17103;48.316;11.558;2023-08-12T08:17:14;3.53;;;2.10;;
30287;SDS011;17103;48.316;11.558;2023-08-12T08:19:39;2.33;;;2.08;;
30287;SDS011;17103;48.316;11.558;2023-08-12T08:22:05;2.88;;;2.58;;
30287;SDS011;17103;48.316;11.558;2023-08-12T08:24:31;4.45;;;2.17;;
30287;SDS011;17103;48.316;11.558;2023-08-12T08:26:56;2.95;;;2.13;;
30287;SDS011;17103;48.316;11.558;2023-08-12T08:29:22;3.58;;;2.10;;
30287;SDS011;17103;48.316;11.558;2023-08-12T08:31:48;2.38;;;2.00;;
30287;SDS011;17103;48.316;11.558;2023-08-12T08:34:14;3.90;;;2.40;;
30287;SDS011;17103;48.316;11.558;2023-08-12T08:36:40;2.90;;;2.13;;
30287;SDS011;17103;48.316;11.558;2023-08-12T08:39:06;3.35;;;2.05;;
30287;SDS011;17103;48.316;11.558;2023-08-12T08:41:31;2.83;;;2.40;;
30287;SDS011;17103;48.316;11.558;2023-08-12T08:44:01;2.75;;;2.42;;
30287;SDS011;17103;48.316;11.558;2023-08-12T08:46:32;3.70;;;2.47;;
30287;SDS011;17103;48.316;11.558;2023-08-12T08:49:01;3.13;;;2.35;;
30287;SDS011;17103;48.316;11.558;2023-08-12T08:51:28;3.22;;;2.65;;
30287;SDS011;17103;48.316;11.558;2023-08-12T08:53:57;2.40;;;2.10;;
30287;SDS011;17103;48.316;11.558;2023-08-12T08:56:23;2.95;;;2.20;;
30287;SDS011;17103;48.316;11.558;2023-08-12T08:58:49;1.80;;;1.60;;
30287;SDS011;17103;48.316;11.558;2023-08-12T09:01:15;2.80;;;2.10;;
30287;SDS011;17103;48.316;11.558;2023-08-12T09:03:45;3.33;;;2.50;;
30287;SDS011;17103;48.316;11.558;2023-08-12T09:06:11;2.35;;;2.15;;
30287;SDS011;17103;48.316;11.558;2023-08-12T09:08:37;2.65;;;2.20;;
30287;SDS011;17103;48.316;11.558;2023-08-12T09:11:05;3.00;;;2.17;;
30287;SDS011;17103;48.316;11.558;2023-08-12T09:13:31;2.75;;;2.53;;
30287;SDS011;17103;48.316;11.558;2023-08-12T09:15:56;3.17;;;2.58;;
30287;SDS011;17103;48.316;11.558;2023-08-12T09:18:22;3.45;;;3.13;;
30287;SDS011;17103;48.316;11.558;2023-08-12T09:20:51;2.55;;;2.28;;
30287;SDS011;17103;48.316;11.558;2023-08-12T09:23:17;3.25;;;2.65;;
30287;SDS011;17103;48.316;11.558;2023-08-12T09:25:43;3.90;;;2.42;;
30287;SDS011;17103;48.316;11.558;2023-08-12T09:28:10;5.15;;;2.80;;
30287;SDS011;17103;48.316;11.558;2023-08-12T09:30:36;2.47;;;2.17;;
30287;SDS011;17103;48.316;11.558;2023-08-12T09:33:04;2.53;;;2.33;;
30287;SDS011;17103;48.316;11.558;2023-08-12T09:35:39;3.08;;;2.78;;
30287;SDS011;17103;48.316;11.558;2023-08-12T09:38:06;4.78;;;2.88;;
30287;SDS011;17103;48.316;11.558;2023-08-12T09:40:36;3.33;;;3.03;;
30287;SDS011;17103;48.316;11.558;2023-08-12T09:43:02;2.90;;;2.60;;
30287;SDS011;17103;48.316;11.558;2023-08-12T09:45:29;2.65;;;2.42;;
30287;SDS011;17103;48.316;11.558;2023-08-12T09:47:55;4.70;;;2.85;;
30287;SDS011;17103;48.316;11.558;2023-08-12T09:50:21;3.83;;;2.60;;
30287;SDS011;17103;48.316;11.558;2023-08-12T09:52:48;3.60;;;2.95;;
30287;SDS011;17103;48.316;11.558;2023-08-12T09:55:15;6.55;;;2.17;;
30287;SDS011;17103;48.316;11.558;2023-08-12T09:57:43;2.90;;;2.60;;
30287;SDS011;17103;48.316;11.558;2023-08-12T10:00:10;2.70;;;2.50;;
30287;SDS011;17103;48.316;11.558;2023-08-12T10:02:41;2.55;;;2.05;;
30287;SDS011;17103;48.316;11.558;2023-08-12T10:05:08;4.68;;;2.58;;
30287;SDS011;17103;48.316;11.558;2023-08-12T10:07:37;2.45;;;2.15;;
30287;SDS011;17103;48.316;11.558;2023-08-12T10:10:05;2.85;;;2.58;;
30287;SDS011;17103;48.316;11.558;2023-08-12T10:12:32;3.53;;;3.10;;
30287;SDS011;17103;48.316;11.558;2023-08-12T10:14:58;3.20;;;2.90;;
30287;SDS011;17103;48.316;11.558;2023-08-12T10:17:26;3.58;;;2.58;;
30287;SDS011;17103;48.316;11.558;2023-08-12T10:19:55;3.92;;;3.28;;
30287;SDS011;17103;48.316;11.558;2023-08-12T10:22:23;3.45;;;2.95;;
30287;SDS011;17103;48.316;11.558;2023-08-12T10:24:51;5.15;;;2.90;;
30287;SDS011;17103;48.316;11.558;2023-08-12T10:27:17;5.30;;;3.50;;
30287;SDS011;17103;48.316;11.558;2023-08-12T10:29:43;2.53;;;2.30;;
30287;SDS011;17103;48.316;11.558;2023-08-12T10:32:09;4.68;;;2.90;;
30287;SDS011;17103;48.316;11.558;2023-08-12T10:34:35;3.53;;;2.30;;
30287;SDS011;17103;48.316;11.558;2023-08-12T10:37:01;3.00;;;2.65;;
30287;SDS011;17103;48.316;11.558;2023-08-12T10:39:28;4.10;;;2.75;;
30287;SDS011;17103;48.316;11.558;2023-08-12T10:41:55;5.05;;;2.67;;
30287;SDS011;17103;48.316;11.558;2023-08-12T10:44:21;2.63;;;2.28;;
30287;SDS011;17103;48.316;11.558;2023-08-12T10:46:51;3.40;;;2.50;;
30287;SDS011;17103;48.316;11.558;2023-08-12T10:49:18;2.90;;;2.45;;
30287;SDS011;17103;48.316;11.558;2023-08-12T10:51:52;3.00;;;2.35;;
30287;SDS011;17103;48.316;11.558;2023-08-12T10:54:22;4.85;;;2.60;;
30287;SDS011;17103;48.316;11.558;2023-08-12T11:02:16;3.75;;;2.42;;
30287;SDS011;17103;48.316;11.558;2023-08-12T11:04:56;2.55;;;2.30;;
30287;SDS011;17103;48.316;11.558;2023-08-12T11:07:32;3.20;;;2.53;;
30287;SDS011;17103;48.316;11.558;2023-08-12T11:10:25;6.90;;;3.53;;
30287;SDS011;17103;48.316;11.558;2023-08-12T11:15:16;2.53;;;2.33;;
30287;SDS011;17103;48.316;11.558;2023-08-12T11:17:43;2.95;;;2.65;;
30287;SDS011;17103;48.316;11.558;2023-08-12T11:20:12;5.05;;;2.40;;
30287;SDS011;17103;48.316;11.558;2023-08-12T11:22:43;4.65;;;2.65;;
30287;SDS011;17103;48.316;11.558;2023-08-12T11:25:10;4.22;;;2.80;;
30287;SDS011;17103;48.316;11.558;2023-08-12T11:27:37;3.45;;;2.50;;
30287;SDS011;17103;48.316;11.558;2023-08-12T11:30:07;3.20;;;2.75;;
30287;SDS011;17103;48.316;11.558;2023-08-12T11:32:35;2.20;;;2.00;;
30287;SDS011;17103;48.316;11.558;2023-08-12T11:35:02;4.03;;;2.60;;
30287;SDS011;17103;48.316;11.558;2023-08-12T11:37:30;2.80;;;2.25;;
30287;SDS011;17103;48.316;11.558;2023-08-12T11:39:56;3.53;;;2.20;;
30287;SDS011;17103;48.316;11.558;2023-08-12T11:42:22;2.70;;;2.50;;
30287;SDS011;17103;48.316;11.558;2023-08-12T11:44:48;4.35;;;2.28;;
30287;SDS011;17103;48.316;11.558;2023-08-12T11:47:13;2.72;;;2.38;;
30287;SDS011;17103;48.316;11.558;2023-08-12T11:49:39;2.47;;;2.28;;
30287;SDS011;17103;48.316;11.558;2023-08-12T11:52:05;2.10;;;1.90;;
30287;SDS011;17103;48.316;11.558;2023-08-12T11:54:31;3.88;;;2.30;;
30287;SDS011;17103;48.316;11.558;2023-08-12T11:56:57;3.42;;;2.15;;
30287;SDS011;17103;48.316;11.558;2023-08-12T11:59:23;3.20;;;2.90;;
30287;SDS011;17103;48.316;11.558;2023-08-12T12:01:51;3.90;;;2.53;;
30287;SDS011;17103;48.316;11.558;2023-08-12T12:04:17;4.25;;;2.35;;
30287;SDS011;17103;48.316;11.558;2023-08-12T12:06:46;4.90;;;2.28;;
30287;SDS011;17103;48.316;11.558;2023-08-12T12:09:13;2.78;;;2.58;;
30287;SDS011;17103;48.316;11.558;2023-08-12T12:11:39;2.50;;;2.30;;
30287;SDS011;17103;48.316;11.558;2023-08-12T12:14:07;2.80;;;2.15;;
30287;SDS011;17103;48.316;11.558;2023-08-12T12:16:44;2.75;;;2.17;;
30287;SDS011;17103;48.316;11.558;2023-08-12T12:19:17;3.88;;;2.33;;
30287;SDS011;17103;48.316;11.558;2023-08-12T12:21:45;2.80;;;2.20;;
30287;SDS011;17103;48.316;11.558;2023-08-12T12:24:12;2.80;;;2.28;;
30287;SDS011;17103;48.316;11.558;2023-08-12T12:26:38;2.88;;;2.20;;
30287;SDS011;17103;48.316;11.558;2023-08-12T12:29:04;7.07;;;2.30;;
30287;SDS011;17103;48.316;11.558;2023-08-12T12:31:34;3.63;;;2.03;;
30287;SDS011;17103;48.316;11.558;2023-08-12T12:34:04;2.40;;;1.85;;
30287;SDS011;17103;48.316;11.558;2023-08-12T12:36:30;4.70;;;2.15;;
30287;SDS011;17103;48.316;11.558;2023-08-12T12:38:56;2.83;;;2.22;;
30287;SDS011;17103;48.316;11.558;2023-08-12T12:41:22;3.90;;;1.85;;
30287;SDS011;17103;48.316;11.558;2023-08-12T12:43:48;3.70;;;2.15;;
30287;SDS011;17103;48.316;11.558;2023-08-12T12:46:14;2.30;;;1.75;;
30287;SDS011;17103;48.316;11.558;2023-08-12T12:48:41;4.47;;;2.00;;
30287;SDS011;17103;48.316;11.558;2023-08-12T12:51:07;4.70;;;2.03;;
30287;SDS011;17103;48.316;11.558;2023-08-12T12:53:32;4.38;;;1.90;;
30287;SDS011;17103;48.316;11.558;2023-08-12T12:55:58;2.33;;;1.92;;
30287;SDS011;17103;48.316;11.558;2023-08-12T12:58:29;2.15;;;1.67;;
30287;SDS011;17103;48.316;11.558;2023-08-12T13:00:58;8.57;;;1.70;;
30287;SDS011;17103;48.316;11.558;2023-08-12T13:03:28;3.10;;;1.85;;
30287;SDS011;17103;48.316;11.558;2023-08-12T13:05:55;2.35;;;1.80;;
30287;SDS011;17103;48.316;11.558;2023-08-12T13:08:21;4.75;;;1.98;;
30287;SDS011;17103;48.316;11.558;2023-08-12T13:10:47;2.97;;;1.73;;
30287;SDS011;17103;48.316;11.558;2023-08-12T13:13:14;2.08;;;1.80;;
30287;SDS011;17103;48.316;11.558;2023-08-12T13:15:43;2.15;;;1.80;;
30287;SDS011;17103;48.316;11.558;2023-08-12T13:18:10;2.67;;;1.65;;
30287;SDS011;17103;48.316;11.558;2023-08-12T13:20:35;2.22;;;1.52;;
30287;SDS011;17103;48.316;11.558;2023-08-12T13:23:02;4.78;;;2.22;;
30287;SDS011;17103;48.316;11.558;2023-08-12T13:25:29;2.50;;;1.77;;
30287;SDS011;17103;48.316;11.558;2023-08-12T13:27:56;1.77;;;1.40;;
30287;SDS011;17103;48.316;11.558;2023-08-12T13:30:21;4.30;;;1.73;;
30287;SDS011;17103;48.316;11.558;2023-08-12T13:32:47;2.38;;;1.70;;
30287;SDS011;17103;48.316;11.558;2023-08-12T13:35:13;2.13;;;1.40;;
30287;SDS011;17103;48.316;11.558;2023-08-12T13:37:38;2.75;;;1.45;;
30287;SDS011;17103;48.316;11.558;2023-08-12T13:40:04;5.55;;;1.75;;
30287;SDS011;17103;48.316;11.558;2023-08-12T13:42:30;3.97;;;1.50;;
30287;SDS011;17103;48.316;11.558;2023-08-12T13:44:56;2.50;;;1.50;;
30287;SDS011;17103;48.316;11.558;2023-08-12T13:47:22;3.50;;;1.50;;
30287;SDS011;17103;48.316;11.558;2023-08-12T13:49:47;2.40;;;1.63;;
30287;SDS011;17103;48.316;11.558;2023-08-12T13:52:13;2.00;;;1.52;;
30287;SDS011;17103;48.316;11.558;2023-08-12T13:54:38;6.75;;;1.88;;
30287;SDS011;17103;48.316;11.558;2023-08-12T13:57:04;3.00;;;1.20;;
30287;SDS011;17103;48.316;11.558;2023-08-12T13:59:30;3.15;;;1.50;;
30287;SDS011;17103;48.316;11.558;2023-08-12T14:01:55;1.90;;;1.52;;
30287;SDS011;17103;48.316;11.558;2023-08-12T14:04:21;2.15;;;1.70;;
30287;SDS011;17103;48.316;11.558;2023-08-12T14:06:47;2.40;;;1.70;;
30287;SDS011;17103;48.316;11.558;2023-08-12T14:09:12;2.00;;;1.35;;
30287;SDS011;17103;48.316;11.558;2023-08-12T14:11:39;2.10;;;1.63;;
30287;SDS011;17103;48.316;11.558;2023-08-12T14:14:05;3.10;;;2.35;;
30287;SDS011;17103;48.316;11.558;2023-08-12T14:16:31;3.50;;;1.60;;
30287;SDS011;17103;48.316;11.558;2023-08-12T14:18:56;4.00;;;1.92;;
30287;SDS011;17103;48.316;11.558;2023-08-12T14:21:22;2.15;;;1.60;;
30287;SDS011;17103;48.316;11.558;2023-08-12T14:23:47;2.05;;;1.65;;
30287;SDS011;17103;48.316;11.558;2023-08-12T14:26:13;3.30;;;1.70;;
30287;SDS011;17103;48.316;11.558;2023-08-12T14:28:39;2.25;;;1.67;;
30287;SDS011;17103;48.316;11.558;2023-08-12T14:31:04;3.13;;;1.70;;
30287;SDS011;17103;48.316;11.558;2023-08-12T14:33:30;2.83;;;2.55;;
30287;SDS011;17103;48.316;11.558;2023-08-12T14:35:59;2.92;;;1.35;;
30287;SDS011;17103;48.316;11.558;2023-08-12T14:38:25;1.70;;;1.60;;
30287;SDS011;17103;48.316;11.558;2023-08-12T14:40:51;1.85;;;1.75;;